Miguel Xavier, Brazil
Current Conditions -  °F | °C
As of 11:00 AM on Thursday 29 Jan 2015 (Local Time) from SBJU Reporting Station
Few Clouds Few Clouds  
Wind Chill: 90°   Ceiling: Unl
Heat Index: 95°   Visibility: 6mi
Dew Point: 70°   Wind: 8mph
Humidity: 52%   Direction: 110°ESE
Pressure: 30"   Gusts: NA
Location:  7.1°S, 39.16°W
Report Text: SBJU 291400Z 11007KT 9999 FEW022 32/21 Q1016
Loading
Personal Weather Stations






























Interactive Weather Map New forecast layout! Learn more

10-Day Weather Forecast

Advertisements
Track Severe Weather on mobile